createdAt,value
2019-02-25T00:00:13.960Z,4.40
2019-02-25T00:05:17.606Z,4.40
2019-02-25T00:10:21.272Z,4.30
2019-02-25T00:15:25.168Z,4.30
2019-02-25T00:20:28.824Z,4.30
2019-02-25T00:25:32.492Z,4.30
2019-02-25T00:30:36.190Z,4.20
2019-02-25T00:35:39.906Z,4.30
2019-02-25T00:40:43.571Z,4.40
2019-02-25T00:45:47.867Z,4.40
2019-02-25T00:50:51.513Z,4.40
2019-02-25T00:55:55.168Z,4.50
2019-02-25T01:00:58.860Z,4.40
2019-02-25T01:06:02.537Z,4.30
2019-02-25T01:11:06.227Z,4.30
2019-02-25T01:16:09.907Z,4.30
2019-02-25T01:21:13.602Z,4.20
2019-02-25T01:26:17.253Z,4.20
2019-02-25T01:31:20.949Z,4.30
2019-02-25T01:36:24.746Z,4.20
2019-02-25T01:41:28.469Z,4.20
2019-02-25T01:46:32.151Z,4.20
2019-02-25T01:51:35.840Z,4.20
2019-02-25T01:56:39.533Z,4.30
2019-02-25T02:01:43.192Z,4.30
2019-02-25T02:06:46.876Z,4.30
2019-02-25T02:11:50.603Z,4.20
2019-02-25T02:16:54.489Z,4.20
2019-02-25T02:21:58.182Z,4.10
2019-02-25T02:27:01.922Z,4.20
2019-02-25T02:32:05.559Z,4.10
2019-02-25T02:37:09.214Z,4.00
2019-02-25T02:42:20.455Z,4.00
2019-02-25T02:47:32.973Z,3.90
2019-02-25T02:52:36.646Z,3.90
2019-02-25T02:57:40.359Z,3.80
2019-02-25T03:02:44.066Z,3.80
2019-02-25T03:07:47.796Z,3.70
2019-02-25T03:12:51.494Z,3.80
2019-02-25T03:17:55.174Z,3.70
2019-02-25T03:22:58.833Z,3.70
2019-02-25T03:28:02.505Z,3.70
2019-02-25T03:33:06.246Z,3.70
2019-02-25T03:38:09.980Z,3.70
2019-02-25T03:43:13.629Z,3.70
2019-02-25T03:48:17.341Z,3.70
2019-02-25T03:53:21.029Z,3.80
2019-02-25T03:58:24.694Z,3.80
2019-02-25T04:03:28.349Z,3.80
2019-02-25T04:08:32.037Z,3.80
2019-02-25T04:13:35.690Z,3.80
2019-02-25T04:18:39.384Z,3.80
2019-02-25T04:23:43.057Z,3.80
2019-02-25T04:28:46.792Z,3.80
2019-02-25T04:33:50.495Z,3.80
2019-02-25T04:38:54.165Z,3.80
2019-02-25T04:43:57.848Z,3.90
2019-02-25T04:49:01.540Z,3.80
2019-02-25T04:54:05.220Z,3.70
2019-02-25T04:59:08.910Z,3.80
2019-02-25T05:04:12.566Z,3.70
2019-02-25T05:09:16.238Z,3.70
2019-02-25T05:14:19.953Z,3.70
2019-02-25T05:19:23.960Z,3.70
2019-02-25T05:24:27.687Z,3.70
2019-02-25T05:29:31.364Z,3.70
2019-02-25T05:34:35.017Z,3.60
2019-02-25T05:39:38.710Z,3.60
2019-02-25T05:44:42.384Z,3.60
2019-02-25T05:49:46.073Z,3.60
2019-02-25T05:54:49.754Z,3.60
2019-02-25T05:59:53.467Z,3.70
2019-02-25T06:04:57.113Z,3.80
2019-02-25T06:10:00.765Z,3.90
2019-02-25T06:15:06.661Z,4.00
2019-02-25T06:20:13.030Z,4.20
2019-02-25T06:25:17.210Z,4.30
2019-02-25T06:30:21.898Z,4.60
2019-02-25T06:35:25.578Z,5.20
2019-02-25T06:40:29.292Z,6.40
2019-02-25T06:45:35.170Z,7.50
2019-02-25T06:50:38.850Z,8.10
2019-02-25T06:55:42.574Z,8.80
2019-02-25T07:00:46.261Z,9.90
2019-02-25T07:05:54.561Z,10.80
2019-02-25T07:11:05.914Z,11.40
2019-02-25T07:16:27.428Z,11.60
2019-02-25T07:21:50.754Z,12.20
2019-02-25T07:26:56.024Z,10.90
2019-02-25T07:32:04.278Z,12.30
2019-02-25T07:37:12.466Z,11.80
2019-02-25T07:42:23.932Z,12.90
2019-02-25T07:47:29.152Z,14.10
2019-02-25T07:52:52.723Z,14.10
2019-02-25T07:58:06.993Z,14.80
2019-02-25T08:03:27.181Z,13.20
2019-02-25T08:08:32.443Z,14.60
2019-02-25T08:13:37.677Z,11.40
2019-02-25T08:19:01.093Z,11.00
2019-02-25T08:24:06.340Z,11.50
2019-02-25T08:29:29.807Z,13.60
2019-02-25T08:34:51.287Z,12.40
2019-02-25T08:40:11.697Z,11.00
2019-02-25T08:45:25.975Z,11.60
2019-02-25T08:50:29.665Z,12.10
2019-02-25T08:55:33.387Z,11.60
2019-02-25T09:00:37.070Z,12.30
2019-02-25T09:05:40.758Z,13.10
2019-02-25T09:10:44.440Z,14.10
2019-02-25T09:15:48.106Z,13.30
2019-02-25T09:20:51.804Z,13.10
2019-02-25T09:25:55.489Z,14.00
2019-02-25T09:30:59.204Z,12.90
2019-02-25T09:36:02.905Z,13.20
2019-02-25T09:41:06.565Z,13.00
2019-02-25T09:46:10.226Z,13.20
2019-02-25T09:51:13.881Z,12.40
2019-02-25T09:56:17.568Z,13.00
2019-02-25T10:01:21.266Z,13.10
2019-02-25T10:06:24.955Z,13.10
2019-02-25T10:11:28.646Z,13.00
2019-02-25T10:16:32.339Z,13.00
2019-02-25T10:21:36.024Z,13.20
2019-02-25T10:26:39.696Z,13.50
2019-02-25T10:31:43.802Z,13.40
2019-02-25T10:36:48.158Z,12.90
2019-02-25T10:41:54.024Z,12.80
2019-02-25T10:46:58.339Z,13.90
2019-02-25T10:52:02.001Z,13.60
2019-02-25T10:57:06.017Z,14.90
2019-02-25T11:02:11.639Z,13.40
2019-02-25T11:07:15.051Z,13.30
2019-02-25T11:12:18.861Z,12.70
2019-02-25T11:17:24.320Z,12.60
2019-02-25T11:22:27.857Z,12.70
2019-02-25T11:27:33.155Z,12.70
2019-02-25T11:32:37.150Z,12.70
2019-02-25T11:37:40.863Z,12.60
2019-02-25T11:42:44.716Z,12.70
2019-02-25T11:47:48.365Z,12.90
2019-02-25T11:52:52.102Z,12.60
2019-02-25T11:57:55.758Z,12.80
2019-02-25T12:02:59.424Z,12.60
2019-02-25T12:08:03.119Z,12.50
2019-02-25T12:13:06.769Z,12.60
2019-02-25T12:18:10.467Z,12.60
2019-02-25T12:23:14.129Z,12.90
2019-02-25T12:28:17.794Z,13.00
2019-02-25T12:33:21.497Z,12.90
2019-02-25T12:38:25.152Z,12.70
2019-02-25T12:43:28.813Z,12.50
2019-02-25T12:48:32.473Z,12.10
2019-02-25T12:53:37.767Z,12.10
2019-02-25T12:58:41.662Z,12.40
2019-02-25T13:03:45.317Z,12.60
2019-02-25T13:08:48.993Z,12.50
2019-02-25T13:13:52.666Z,12.60
2019-02-25T13:18:56.321Z,12.90
2019-02-25T13:24:01.902Z,13.10
2019-02-25T13:29:05.386Z,13.00
2019-02-25T13:34:09.132Z,13.00
2019-02-25T13:39:12.837Z,13.00
2019-02-25T13:44:16.635Z,12.90
2019-02-25T13:49:20.329Z,13.00
2019-02-25T13:54:24.107Z,13.00
2019-02-25T13:59:28.132Z,13.00
2019-02-25T14:04:31.802Z,12.80
2019-02-25T14:09:35.461Z,12.60
2019-02-25T14:14:39.160Z,12.50
2019-02-25T14:19:42.847Z,12.50
2019-02-25T14:24:46.852Z,12.60
2019-02-25T14:29:50.910Z,12.50
2019-02-25T14:34:54.603Z,12.50
2019-02-25T14:40:01.376Z,12.40
2019-02-25T14:45:04.606Z,12.30
2019-02-25T14:50:19.719Z,12.30
2019-02-25T14:55:23.615Z,12.50
2019-02-25T15:00:28.989Z,12.70
2019-02-25T15:05:33.643Z,12.80
2019-02-25T15:10:38.559Z,12.80
2019-02-25T15:15:44.126Z,12.70
2019-02-25T15:20:49.035Z,12.60
2019-02-25T15:25:52.762Z,12.40
2019-02-25T15:30:59.737Z,12.30
2019-02-25T15:36:01.753Z,12.20
2019-02-25T15:41:07.440Z,12.20
2019-02-25T15:46:12.486Z,12.20
2019-02-25T15:51:18.375Z,12.20
2019-02-25T15:56:22.299Z,12.00
2019-02-25T16:01:25.990Z,11.90
2019-02-25T16:06:30.998Z,11.70
2019-02-25T16:11:36.646Z,11.60
2019-02-25T16:16:40.409Z,11.50
2019-02-25T16:21:44.202Z,11.40
2019-02-25T16:26:48.751Z,11.20
2019-02-25T16:31:53.507Z,11.20
2019-02-25T16:36:58.772Z,11.10
2019-02-25T16:42:03.342Z,11.10
2019-02-25T16:47:07.908Z,11.10
2019-02-25T16:52:13.920Z,11.00
2019-02-25T16:57:18.516Z,11.00
2019-02-25T17:02:23.021Z,10.90
2019-02-25T17:07:26.709Z,10.80
2019-02-25T17:12:31.647Z,10.60
2019-02-25T17:17:35.506Z,10.50
2019-02-25T17:22:39.195Z,10.50
2019-02-25T17:27:42.906Z,10.40
2019-02-25T17:32:48.404Z,10.30
2019-02-25T17:37:53.424Z,10.20
2019-02-25T17:42:57.684Z,10.10
2019-02-25T17:48:03.559Z,10.10
2019-02-25T17:53:07.435Z,10.20
2019-02-25T17:58:13.009Z,10.10
2019-02-25T18:03:17.409Z,10.00
2019-02-25T18:08:21.939Z,9.90
2019-02-25T18:13:28.112Z,9.90
2019-02-25T18:18:32.393Z,9.80
2019-02-25T18:23:36.323Z,9.80
2019-02-25T18:28:41.641Z,9.80
2019-02-25T18:33:48.078Z,9.80
2019-02-25T18:38:52.781Z,9.70
2019-02-25T18:43:56.969Z,9.70
2019-02-25T18:49:00.685Z,9.60
2019-02-25T18:54:04.525Z,9.60
2019-02-25T18:59:13.034Z,9.40
2019-02-25T19:04:15.236Z,9.20
2019-02-25T19:09:21.188Z,9.20
2019-02-25T19:14:26.506Z,9.00
2019-02-25T19:19:31.340Z,8.90
2019-02-25T19:24:39.694Z,8.90
2019-02-25T19:29:41.173Z,8.80
2019-02-25T19:34:44.905Z,8.70
2019-02-25T19:39:50.421Z,8.60
2019-02-25T19:44:53.914Z,8.50
2019-02-25T19:49:59.651Z,8.40
2019-02-25T19:55:06.191Z,8.40
2019-02-25T20:00:24.990Z,8.30
2019-02-25T20:05:27.885Z,8.30
2019-02-25T20:10:31.544Z,8.20
2019-02-25T20:15:37.549Z,8.10
2019-02-25T20:20:41.696Z,8.00
2019-02-25T20:25:48.489Z,8.00
2019-02-25T20:30:52.028Z,8.00
2019-02-25T20:35:58.906Z,7.90
2019-02-25T20:41:02.594Z,7.90
2019-02-25T20:46:08.592Z,7.80
2019-02-25T20:51:12.013Z,7.80
2019-02-25T20:56:15.918Z,7.70
2019-02-25T21:01:20.959Z,7.80
2019-02-25T21:06:24.750Z,7.80
2019-02-25T21:11:28.480Z,7.80
2019-02-25T21:16:33.101Z,7.80
2019-02-25T21:21:38.982Z,7.70
2019-02-25T21:26:42.830Z,7.70
2019-02-25T21:31:47.559Z,7.80
2019-02-25T21:36:53.936Z,7.70
2019-02-25T21:41:57.173Z,7.60
2019-02-25T21:47:03.208Z,7.50
2019-02-25T21:52:06.698Z,7.50
2019-02-25T21:57:11.527Z,7.40
2019-02-25T22:02:15.886Z,7.40
2019-02-25T22:07:24.161Z,7.30
2019-02-25T22:12:26.902Z,7.30
2019-02-25T22:17:30.782Z,7.20
2019-02-25T22:22:35.348Z,7.20
2019-02-25T22:27:41.256Z,7.20
2019-02-25T22:32:45.101Z,7.20
2019-02-25T22:37:52.060Z,7.10
2019-02-25T22:42:54.968Z,7.10
2019-02-25T22:47:59.423Z,7.10
2019-02-25T22:53:04.257Z,7.00
2019-02-25T22:58:10.444Z,6.90
2019-02-25T23:03:15.493Z,7.00
2019-02-25T23:08:21.101Z,7.00
2019-02-25T23:13:25.063Z,6.90
2019-02-25T23:18:30.015Z,6.90
2019-02-25T23:23:35.624Z,6.80
2019-02-25T23:28:39.075Z,6.80
2019-02-25T23:33:44.304Z,6.80
2019-02-25T23:38:48.077Z,6.70
2019-02-25T23:43:52.024Z,6.80
2019-02-25T23:48:55.745Z,6.90
2019-02-25T23:53:59.424Z,6.90
2019-02-25T23:59:03.085Z,7.00
